createdAt,value
2019-06-01T00:02:58.160Z,66.20
2019-06-01T00:08:06.851Z,66.40
2019-06-01T00:13:15.565Z,66.20
2019-06-01T00:18:24.363Z,65.80
2019-06-01T00:23:33.261Z,66.20
2019-06-01T00:28:42.088Z,66.20
2019-06-01T00:33:51.714Z,66.20
2019-06-01T00:38:59.672Z,66.30
2019-06-01T00:44:08.397Z,66.20
2019-06-01T00:49:17.179Z,66.50
2019-06-01T00:54:26.129Z,66.10
2019-06-01T00:59:35.119Z,66.70
2019-06-01T01:04:44.265Z,66.40
2019-06-01T01:09:52.895Z,66.10
2019-06-01T01:15:01.378Z,66.40
2019-06-01T01:20:10.241Z,66.90
2019-06-01T01:25:19.003Z,66.70
2019-06-01T01:30:27.952Z,66.60
2019-06-01T01:35:36.780Z,66.60
2019-06-01T01:40:45.554Z,66.90
2019-06-01T01:45:54.834Z,66.00
2019-06-01T01:51:03.166Z,65.80
2019-06-01T01:56:12.035Z,66.30
2019-06-01T02:01:23.042Z,66.50
2019-06-01T02:06:29.635Z,66.90
2019-06-01T02:11:38.410Z,67.60
2019-06-01T02:16:47.206Z,67.70
2019-06-01T02:21:56.467Z,67.40
2019-06-01T02:27:04.720Z,68.10
2019-06-01T02:32:13.536Z,68.20
2019-06-01T02:37:22.595Z,67.50
2019-06-01T02:42:31.333Z,67.40
2019-06-01T02:47:40.175Z,67.70
2019-06-01T02:52:49.125Z,66.90
2019-06-01T02:57:58.086Z,66.80
2019-06-01T03:03:06.969Z,67.20
2019-06-01T03:08:15.737Z,67.50
2019-06-01T03:13:24.570Z,67.40
2019-06-01T03:18:33.378Z,67.40
2019-06-01T03:23:42.944Z,67.50
2019-06-01T03:28:51.949Z,67.50
2019-06-01T03:34:01.498Z,67.60
2019-06-01T03:39:09.658Z,67.80
2019-06-01T03:44:18.693Z,67.40
2019-06-01T03:49:27.306Z,67.50
2019-06-01T03:54:36.205Z,67.40
2019-06-01T03:59:45.070Z,67.50
2019-06-01T04:04:53.950Z,68.20
2019-06-01T04:10:03.891Z,68.00
2019-06-01T04:15:16.225Z,68.40
2019-06-01T04:20:20.319Z,68.80
2019-06-01T04:25:31.976Z,68.70
2019-06-01T04:30:40.934Z,69.00
2019-06-01T04:35:49.712Z,69.00
2019-06-01T04:40:58.615Z,68.80
2019-06-01T04:46:08.186Z,69.50
2019-06-01T04:51:16.265Z,69.90
2019-06-01T04:56:25.001Z,69.70
2019-06-01T05:01:33.901Z,69.80
2019-06-01T05:06:42.770Z,70.40
2019-06-01T05:11:51.654Z,71.70
2019-06-01T05:17:00.453Z,72.00
2019-06-01T05:22:10.425Z,71.90
2019-06-01T05:27:18.195Z,72.50
2019-06-01T05:32:27.169Z,71.80
2019-06-01T05:37:36.068Z,71.40
2019-06-01T05:42:44.638Z,72.00
2019-06-01T05:47:53.391Z,71.60
2019-06-01T05:53:02.252Z,71.70
2019-06-01T05:58:10.978Z,73.10
2019-06-01T06:03:22.327Z,74.30
2019-06-01T06:08:28.585Z,75.00
2019-06-01T06:13:37.333Z,74.60
2019-06-01T06:18:46.278Z,76.40
2019-06-01T06:23:55.145Z,76.10
2019-06-01T06:29:03.927Z,75.90
2019-06-01T06:34:13.281Z,75.60
2019-06-01T06:39:22.096Z,75.30
2019-06-01T06:44:30.793Z,75.60
2019-06-01T06:49:40.905Z,74.50
2019-06-01T06:54:49.584Z,72.90
2019-06-01T06:59:58.306Z,72.80
2019-06-01T07:05:07.112Z,71.20
2019-06-01T07:10:15.915Z,69.00
2019-06-01T07:15:25.534Z,69.50
2019-06-01T07:20:33.507Z,68.80
2019-06-01T07:25:42.492Z,68.40
2019-06-01T07:30:51.431Z,67.80
2019-06-01T07:36:00.443Z,65.80
2019-06-01T07:41:09.169Z,64.80
2019-06-01T07:46:17.957Z,64.40
2019-06-01T07:51:27.421Z,64.40
2019-06-01T07:56:35.538Z,61.70
2019-06-01T08:01:44.401Z,62.00
2019-06-01T08:06:53.204Z,58.90
2019-06-01T08:12:02.022Z,60.20
2019-06-01T08:17:10.791Z,57.30
2019-06-01T08:22:19.547Z,56.70
2019-06-01T08:27:28.536Z,54.40
2019-06-01T08:32:37.317Z,53.90
2019-06-01T08:37:46.196Z,52.90
2019-06-01T08:42:55.079Z,52.20
2019-06-01T08:48:04.161Z,51.30
2019-06-01T08:53:12.893Z,49.40
2019-06-01T08:58:21.723Z,50.30
2019-06-01T09:03:31.532Z,49.30
2019-06-01T09:08:39.589Z,48.80
2019-06-01T09:13:52.119Z,47.40
2019-06-01T09:18:57.697Z,47.30
2019-06-01T09:24:06.509Z,46.50
2019-06-01T09:29:15.203Z,45.60
2019-06-01T09:34:23.963Z,44.40
2019-06-01T09:39:33.171Z,46.00
2019-06-01T09:44:46.119Z,46.80
2019-06-01T09:49:54.652Z,43.80
2019-06-01T09:55:03.946Z,42.50
2019-06-01T10:00:12.779Z,41.90
2019-06-01T10:05:21.698Z,42.20
2019-06-01T10:10:31.751Z,42.90
2019-06-01T10:15:40.180Z,41.00
2019-06-01T10:20:48.990Z,40.00
2019-06-01T10:25:58.278Z,38.10
2019-06-01T10:31:07.488Z,37.60
2019-06-01T10:36:21.014Z,37.30
2019-06-01T10:41:25.440Z,37.50
2019-06-01T10:46:35.790Z,36.00
2019-06-01T10:51:42.928Z,34.40
2019-06-01T10:56:52.030Z,37.20
2019-06-01T11:02:00.458Z,35.80
2019-06-01T11:07:09.396Z,35.80
2019-06-01T11:12:18.122Z,33.10
2019-06-01T11:17:26.987Z,32.80
2019-06-01T11:22:35.914Z,35.50
2019-06-01T11:27:44.670Z,33.40
2019-06-01T11:32:53.357Z,32.40
2019-06-01T11:38:02.224Z,33.50
2019-06-01T11:43:11.107Z,32.50
2019-06-01T11:48:19.776Z,32.80
2019-06-01T11:53:28.415Z,34.60
2019-06-01T11:58:37.301Z,34.20
2019-06-01T12:03:46.284Z,30.20
2019-06-01T12:08:54.881Z,31.50
2019-06-01T12:14:03.887Z,32.80
2019-06-01T12:19:12.578Z,31.30
2019-06-01T12:24:25.436Z,32.20
2019-06-01T12:29:30.373Z,32.20
2019-06-01T12:34:39.964Z,32.10
2019-06-01T12:39:52.263Z,32.00
2019-06-01T12:44:57.043Z,32.20
2019-06-01T12:50:05.847Z,32.10
2019-06-01T12:55:14.527Z,30.30
2019-06-01T13:00:23.568Z,28.40
2019-06-01T13:05:32.292Z,29.70
2019-06-01T13:10:41.138Z,30.30
2019-06-01T13:15:49.961Z,29.90
2019-06-01T13:20:58.588Z,27.60
2019-06-01T13:26:07.426Z,28.30
2019-06-01T13:31:16.393Z,29.00
2019-06-01T13:36:25.332Z,28.90
2019-06-01T13:41:34.131Z,30.50
2019-06-01T13:46:43.523Z,32.50
2019-06-01T13:51:52.600Z,32.20
2019-06-01T13:57:00.607Z,31.30
2019-06-01T14:02:09.646Z,30.60
2019-06-01T14:07:20.263Z,30.90
2019-06-01T14:12:29.057Z,29.70
2019-06-01T14:17:37.742Z,30.00
2019-06-01T14:22:47.636Z,30.50
2019-06-01T14:27:56.450Z,31.90
2019-06-01T14:33:04.517Z,32.70
2019-06-01T14:38:13.436Z,31.50
2019-06-01T14:43:22.319Z,33.20
2019-06-01T14:48:31.357Z,32.50
2019-06-01T14:53:40.166Z,32.20
2019-06-01T14:58:49.910Z,31.40
2019-06-01T15:03:58.401Z,31.50
2019-06-01T15:09:18.285Z,33.60
2019-06-01T15:14:17.997Z,32.50
2019-06-01T15:19:26.754Z,33.40
2019-06-01T15:24:35.884Z,32.90
2019-06-01T15:29:45.382Z,30.90
2019-06-01T15:34:54.510Z,32.60
2019-06-01T15:40:03.519Z,32.20
2019-06-01T15:45:12.434Z,31.90
2019-06-01T15:50:21.144Z,32.60
2019-06-01T15:55:29.850Z,32.20
2019-06-01T16:00:38.778Z,32.60
2019-06-01T16:05:47.502Z,32.50
2019-06-01T16:11:01.110Z,33.70
2019-06-01T16:16:05.651Z,33.00
2019-06-01T16:21:14.352Z,34.80
2019-06-01T16:26:23.219Z,35.70
2019-06-01T16:31:31.981Z,34.50
2019-06-01T16:36:40.805Z,35.40
2019-06-01T16:41:49.509Z,35.20
2019-06-01T16:46:58.176Z,35.60
2019-06-01T16:52:07.209Z,37.00
2019-06-01T16:57:15.776Z,35.50
2019-06-01T17:02:24.770Z,36.20
2019-06-01T17:07:33.507Z,35.90
2019-06-01T17:12:43.772Z,36.20
2019-06-01T17:17:51.281Z,36.40
2019-06-01T17:23:01.502Z,35.80
2019-06-01T17:28:09.321Z,36.90
2019-06-01T17:33:17.819Z,38.00
2019-06-01T17:38:26.587Z,37.20
2019-06-01T17:43:35.457Z,37.90
2019-06-01T17:48:44.295Z,37.30
2019-06-01T17:53:53.527Z,37.10
2019-06-01T17:59:01.851Z,37.50
2019-06-01T18:04:12.026Z,38.50
2019-06-01T18:09:19.574Z,39.00
2019-06-01T18:14:28.405Z,38.40
2019-06-01T18:19:37.211Z,38.80
2019-06-01T18:24:45.876Z,39.80
2019-06-01T18:29:54.721Z,40.50
2019-06-01T18:35:04.939Z,41.40
2019-06-01T18:40:13.953Z,41.10
2019-06-01T18:45:21.913Z,41.60
2019-06-01T18:50:30.737Z,42.50
2019-06-01T18:55:39.636Z,43.20
2019-06-01T19:00:48.529Z,43.80
2019-06-01T19:05:57.404Z,45.10
2019-06-01T19:11:06.314Z,46.20
2019-06-01T19:16:16.155Z,46.60
2019-06-01T19:21:23.922Z,46.90
2019-06-01T19:26:32.730Z,47.30
2019-06-01T19:31:41.696Z,47.70
2019-06-01T19:36:50.794Z,48.20
2019-06-01T19:41:59.513Z,48.80
2019-06-01T19:47:08.195Z,49.00
2019-06-01T19:52:17.167Z,49.40
2019-06-01T19:57:25.960Z,49.40
2019-06-01T20:02:34.896Z,50.10
2019-06-01T20:07:43.738Z,50.50
2019-06-01T20:12:52.653Z,50.90
2019-06-01T20:18:02.366Z,50.90
2019-06-01T20:23:11.460Z,51.50
2019-06-01T20:28:20.252Z,51.60
2019-06-01T20:33:29.048Z,51.70
2019-06-01T20:38:37.855Z,51.90
2019-06-01T20:43:46.771Z,52.30
2019-06-01T20:48:55.827Z,51.80
2019-06-01T20:54:04.698Z,51.50
2019-06-01T20:59:16.652Z,53.90
2019-06-01T21:04:22.482Z,55.60
2019-06-01T21:09:31.194Z,55.20
2019-06-01T21:14:41.132Z,54.20
2019-06-01T21:19:49.253Z,54.00
2019-06-01T21:24:58.003Z,53.80
2019-06-01T21:30:06.814Z,54.00
2019-06-01T21:35:15.642Z,54.20
2019-06-01T21:40:25.648Z,54.00
2019-06-01T21:45:33.185Z,55.50
2019-06-01T21:50:41.939Z,54.80
2019-06-01T21:55:50.657Z,54.80
2019-06-01T22:00:59.533Z,56.20
2019-06-01T22:06:08.262Z,55.80
2019-06-01T22:11:17.362Z,55.40
2019-06-01T22:16:25.952Z,56.00
2019-06-01T22:21:34.745Z,56.10
2019-06-01T22:26:43.426Z,55.90
2019-06-01T22:31:52.306Z,55.50
2019-06-01T22:37:01.119Z,55.80
2019-06-01T22:42:09.907Z,56.20
2019-06-01T22:47:18.816Z,56.20
2019-06-01T22:52:28.817Z,56.60
2019-06-01T22:57:36.514Z,56.20
2019-06-01T23:02:45.373Z,56.00
2019-06-01T23:07:54.242Z,56.50
2019-06-01T23:13:03.090Z,56.90
2019-06-01T23:18:11.912Z,57.70
2019-06-01T23:23:22.248Z,56.20
2019-06-01T23:28:30.416Z,57.10
2019-06-01T23:33:38.644Z,56.90
2019-06-01T23:38:47.414Z,58.20
2019-06-01T23:44:10.219Z,58.00
2019-06-01T23:49:05.092Z,57.10
2019-06-01T23:54:13.742Z,57.20
2019-06-01T23:59:23.941Z,55.60
